5C1 weather

Boerne Stage Field
San Antonio, Texas, United States

Public forecast

Using degrees Fahrenheit for public forecast. Weather courtesy of forecast.io.

METAR (pilot weather report)

Retrieved 2019/06/19 14:35 UTC (13 minutes ago):

K5C1 191435Z AUTO 18008KT 10SM CLR 26/22 A2993 RMK AO1

TAF (pilot weather forecast)

Closest forecast is San Antonio International Airport, 16.4 nm (30.3 km) SE. Retrieved 2019/06/19 12:36 UTC (2 hours ago):

TAF KSAT 191135Z 1912/2018 17010KT P6SM SCT010 TEMPO 1912/1915 BKN010 FM191500 18013KT P6SM FEW050 FEW250 FM200100 15012KT P6SM SCT250 FM200700 17010KT P6SM BKN012